Time;durP1;ratioP1;P1;durP2;ratioP2;P2;SDS_P1;SDS_P2;PMS_P1;PMS_P2;Temp;Humidity;BMP_temperature;BMP_pressure;BME280_temperature;BME280_humidity;BME280_pressure;Samples;Min_cycle;Max_cycle;Signal;HPM_P1;HPM_P2
2023/10/29 00:01:03;;;;;;;6.70;4.20;;;10.70;99.90;;;;;;5070968;28;20055;-76
2023/10/29 00:03:29;;;;;;;7.03;3.55;;;10.70;99.90;;;;;;5070948;28;20048;-77
2023/10/29 00:05:54;;;;;;;5.00;3.58;;;10.70;99.90;;;;;;5071521;28;20405;-76
2023/10/29 00:08:20;;;;;;;5.60;3.60;;;10.80;99.90;;;;;;5035415;28;20410;-76
2023/10/29 00:10:46;;;;;;;9.95;3.47;;;10.70;99.90;;;;;;5071515;28;20043;-76
2023/10/29 00:13:12;;;;;;;8.10;4.00;;;10.80;99.90;;;;;;5070325;28;20044;-76
2023/10/29 00:15:38;;;;;;;7.72;4.30;;;10.80;99.90;;;;;;5071291;28;20057;-77
2023/10/29 00:18:08;;;;;;;9.45;4.43;;;10.80;99.90;;;;;;5064140;28;20053;-75
2023/10/29 00:20:35;;;;;;;7.60;4.35;;;10.80;99.90;;;;;;5062399;28;20056;-77
2023/10/29 00:23:00;;;;;;;9.48;4.53;;;10.80;99.90;;;;;;5071531;28;20106;-76
2023/10/29 00:25:26;;;;;;;6.88;4.25;;;10.80;99.90;;;;;;5074313;28;20048;-76
2023/10/29 00:27:52;;;;;;;11.48;5.85;;;10.80;99.90;;;;;;5074927;28;20040;-76
2023/10/29 00:30:17;;;;;;;8.07;5.57;;;10.80;99.90;;;;;;5073957;28;20052;-77
2023/10/29 00:32:43;;;;;;;7.68;5.13;;;10.80;99.90;;;;;;5075268;28;20045;-76
2023/10/29 00:35:09;;;;;;;9.48;5.00;;;10.80;99.90;;;;;;5074109;28;20569;-76
2023/10/29 00:37:35;;;;;;;10.95;4.63;;;10.80;99.90;;;;;;5070626;28;20049;-78
2023/10/29 00:40:01;;;;;;;6.97;5.13;;;10.80;99.90;;;;;;5050555;28;20079;-77
2023/10/29 00:42:27;;;;;;;10.75;5.35;;;10.80;99.90;;;;;;5074472;28;20070;-78
2023/10/29 00:44:53;;;;;;;8.10;5.22;;;10.80;99.90;;;;;;5073500;28;20041;-78
2023/10/29 00:47:18;;;;;;;10.05;4.82;;;10.80;99.90;;;;;;5069572;28;20485;-80
2023/10/29 00:49:45;;;;;;;8.20;4.70;;;10.80;99.90;;;;;;5047391;28;20056;-80
2023/10/29 00:52:10;;;;;;;8.10;4.13;;;10.80;99.90;;;;;;5033225;28;20144;-78
2023/10/29 00:54:36;;;;;;;9.43;5.10;;;10.80;99.90;;;;;;5061682;28;20139;-79
2023/10/29 00:57:02;;;;;;;7.22;4.85;;;10.80;99.90;;;;;;5073076;28;20128;-79
2023/10/29 00:59:30;;;;;;;10.57;5.57;;;10.90;99.90;;;;;;5074024;28;20072;-81
2023/10/29 01:01:56;;;;;;;5.80;4.70;;;10.80;99.90;;;;;;5059830;28;20402;-78
2023/10/29 01:04:22;;;;;;;5.85;4.75;;;10.80;99.90;;;;;;5072394;28;20045;-79
2023/10/29 01:06:49;;;;;;;6.18;3.58;;;10.80;99.90;;;;;;5072164;28;20055;-79
2023/10/29 01:09:15;;;;;;;7.80;4.22;;;10.80;99.90;;;;;;5072463;28;20067;-78
2023/10/29 01:11:41;;;;;;;7.65;4.18;;;10.90;99.90;;;;;;5069894;28;20055;-78
2023/10/29 01:14:07;;;;;;;5.53;4.10;;;10.90;99.90;;;;;;5054745;28;20040;-79
2023/10/29 01:16:33;;;;;;;5.00;3.67;;;10.90;99.90;;;;;;5073213;28;20404;-76
2023/10/29 01:18:59;;;;;;;5.90;3.63;;;10.90;99.90;;;;;;5074396;28;20436;-76
2023/10/29 01:21:27;;;;;;;7.50;4.80;;;10.90;99.90;;;;;;5074221;28;20048;-75
2023/10/29 01:23:53;;;;;;;5.55;4.32;;;10.90;99.90;;;;;;5058302;28;20044;-75
2023/10/29 01:26:19;;;;;;;8.02;5.13;;;10.90;99.90;;;;;;5074797;28;20552;-75
2023/10/29 01:28:45;;;;;;;5.60;4.05;;;11.00;99.90;;;;;;5073626;28;20036;-75
2023/10/29 01:31:11;;;;;;;4.70;3.22;;;11.00;99.90;;;;;;5074423;28;20051;-75
2023/10/29 01:33:37;;;;;;;6.65;4.32;;;11.00;99.90;;;;;;5073636;28;20091;-75
2023/10/29 01:36:04;;;;;;;5.82;3.80;;;11.00;99.90;;;;;;5072229;28;20052;-75
2023/10/29 01:38:30;;;;;;;5.45;3.78;;;11.10;99.90;;;;;;5056356;28;20048;-75
2023/10/29 01:40:56;;;;;;;7.45;4.28;;;11.00;99.90;;;;;;5073942;28;20052;-76
2023/10/29 01:43:21;;;;;;;5.30;3.78;;;11.10;99.90;;;;;;5040257;28;20053;-76
2023/10/29 01:45:47;;;;;;;5.80;3.45;;;11.10;99.90;;;;;;5073708;28;20052;-76
2023/10/29 01:48:13;;;;;;;4.57;3.50;;;11.10;99.90;;;;;;5057001;28;20048;-76
2023/10/29 01:50:38;;;;;;;8.35;4.32;;;11.10;99.90;;;;;;5056466;28;20044;-76
2023/10/29 01:53:04;;;;;;;5.75;4.13;;;11.20;99.90;;;;;;5073330;28;20156;-76
2023/10/29 01:55:35;;;;;;;6.65;3.72;;;11.20;99.90;;;;;;5072769;28;20498;-76
2023/10/29 01:58:00;;;;;;;8.35;4.03;;;11.20;99.90;;;;;;5073124;28;20045;-76
2023/10/29 02:00:26;;;;;;;6.75;3.67;;;11.20;99.90;;;;;;5073031;28;20103;-76
2023/10/29 02:02:52;;;;;;;6.57;4.05;;;11.30;99.90;;;;;;5073306;28;20051;-76
2023/10/29 02:05:17;;;;;;;7.72;4.05;;;11.30;99.90;;;;;;5073002;28;20477;-76
2023/10/29 02:07:43;;;;;;;5.40;3.45;;;11.40;99.90;;;;;;5073045;28;20379;-75
2023/10/29 02:10:09;;;;;;;7.53;3.58;;;11.40;99.90;;;;;;5056119;28;20048;-76
2023/10/29 02:12:35;;;;;;;4.57;2.55;;;11.40;99.90;;;;;;5072327;28;20044;-76
2023/10/29 02:15:01;;;;;;;6.10;2.88;;;11.50;99.90;;;;;;5056432;28;20044;-76
2023/10/29 02:17:27;;;;;;;4.03;3.13;;;11.60;99.90;;;;;;5071961;28;20504;-76
2023/10/29 02:19:55;;;;;;;4.93;2.97;;;11.60;99.90;;;;;;5073522;28;20075;-74
2023/10/29 02:22:22;;;;;;;4.50;3.30;;;11.70;99.90;;;;;;5072891;28;20083;-76
2023/10/29 02:24:48;;;;;;;5.72;3.25;;;11.70;99.90;;;;;;5056153;28;20436;-74
2023/10/29 02:27:14;;;;;;;6.30;3.10;;;11.80;99.90;;;;;;5056430;28;20044;-75
2023/10/29 02:29:39;;;;;;;5.43;2.58;;;11.80;99.90;;;;;;5055848;28;20048;-75
2023/10/29 02:32:05;;;;;;;4.60;2.58;;;11.80;99.90;;;;;;5073290;28;20135;-76
2023/10/29 02:34:31;;;;;;;5.00;3.28;;;11.80;99.90;;;;;;5055590;28;20394;-76
2023/10/29 02:36:56;;;;;;;5.68;3.08;;;11.80;99.90;;;;;;5055941;28;20047;-75
2023/10/29 02:39:22;;;;;;;8.00;3.15;;;11.80;99.90;;;;;;5056223;28;20045;-76
2023/10/29 02:41:48;;;;;;;3.97;2.67;;;11.90;99.90;;;;;;5072381;28;20078;-74
2023/10/29 02:44:14;;;;;;;5.22;3.05;;;11.90;99.90;;;;;;5055997;28;20079;-76
2023/10/29 02:46:39;;;;;;;6.97;2.90;;;11.90;99.90;;;;;;5071828;28;20054;-76
2023/10/29 02:49:05;;;;;;;6.03;3.20;;;12.00;99.90;;;;;;5039308;28;20044;-75
2023/10/29 02:51:31;;;;;;;4.25;2.55;;;12.00;99.90;;;;;;5071951;28;20049;-75
2023/10/29 02:53:56;;;;;;;6.57;3.17;;;12.00;99.90;;;;;;5072314;28;20044;-75
2023/10/29 02:56:22;;;;;;;6.68;2.92;;;12.00;99.90;;;;;;5071490;28;20059;-74
2023/10/29 02:58:48;;;;;;;4.30;2.63;;;12.00;99.90;;;;;;5071114;28;20044;-75
2023/10/29 03:01:15;;;;;;;7.13;2.53;;;12.00;99.90;;;;;;5071612;28;20124;-75
2023/10/29 03:03:41;;;;;;;5.38;2.35;;;12.00;99.90;;;;;;5071150;28;20047;-75
2023/10/29 03:06:08;;;;;;;3.35;2.45;;;12.10;99.90;;;;;;5071620;28;20474;-75
2023/10/29 03:08:34;;;;;;;6.13;2.65;;;12.10;99.90;;;;;;5071590;28;20044;-75
2023/10/29 03:11:00;;;;;;;4.72;2.83;;;12.00;99.90;;;;;;5071721;28;20070;-75
2023/10/29 03:13:26;;;;;;;3.85;2.53;;;12.00;99.90;;;;;;5071862;28;20052;-75
2023/10/29 03:15:52;;;;;;;4.40;2.33;;;12.00;99.90;;;;;;5037846;28;20340;-74
2023/10/29 03:18:18;;;;;;;7.47;2.50;;;12.10;99.90;;;;;;5054996;28;20127;-74
2023/10/29 03:20:43;;;;;;;4.78;2.38;;;12.10;99.90;;;;;;5071177;28;20079;-75
2023/10/29 03:23:09;;;;;;;4.28;2.25;;;12.10;99.90;;;;;;5071755;28;20040;-73
2023/10/29 03:25:35;;;;;;;3.85;2.08;;;12.10;99.90;;;;;;5054605;28;20402;-75
2023/10/29 03:28:01;;;;;;;6.28;2.50;;;12.10;99.90;;;;;;5054977;28;20486;-74
2023/10/29 03:30:26;;;;;;;5.45;2.35;;;12.10;99.90;;;;;;5071126;28;20090;-73
2023/10/29 03:32:52;;;;;;;3.92;2.03;;;12.10;99.90;;;;;;5071097;28;20119;-74
2023/10/29 03:35:18;;;;;;;4.32;2.30;;;12.10;99.90;;;;;;5054868;28;20533;-74
2023/10/29 03:37:44;;;;;;;4.15;2.10;;;12.10;99.90;;;;;;5071108;28;20040;-74
2023/10/29 03:40:10;;;;;;;7.00;1.80;;;12.10;99.90;;;;;;5071692;28;20348;-74
2023/10/29 03:42:35;;;;;;;5.80;2.30;;;12.10;99.90;;;;;;5054108;28;20041;-75
2023/10/29 03:45:03;;;;;;;3.95;1.70;;;12.10;99.90;;;;;;5071503;28;20052;-75
2023/10/29 03:47:29;;;;;;;5.75;1.90;;;12.10;99.90;;;;;;5071470;28;20048;-74
2023/10/29 03:49:55;;;;;;;3.70;1.88;;;12.20;99.90;;;;;;5054041;28;20052;-74
2023/10/29 03:52:22;;;;;;;4.07;1.98;;;12.20;99.90;;;;;;5071297;28;20044;-75
2023/10/29 03:54:48;;;;;;;6.80;2.22;;;12.10;99.90;;;;;;5054375;28;20059;-74
2023/10/29 03:57:14;;;;;;;3.40;1.83;;;12.20;99.90;;;;;;5071175;28;20382;-73
2023/10/29 03:59:40;;;;;;;3.78;1.85;;;12.10;99.90;;;;;;5074467;28;20048;-74
2023/10/29 04:02:06;;;;;;;2.65;1.70;;;12.20;99.90;;;;;;5075237;28;20363;-73
2023/10/29 04:04:35;;;;;;;2.63;1.70;;;12.20;99.90;;;;;;5075111;28;20106;-74
2023/10/29 04:07:02;;;;;;;3.08;1.50;;;12.20;99.90;;;;;;5075942;28;20097;-73
2023/10/29 04:09:28;;;;;;;2.22;1.52;;;12.20;99.90;;;;;;5075384;28;20056;-74
2023/10/29 04:11:54;;;;;;;4.18;1.80;;;12.20;99.90;;;;;;5058518;28;20440;-74
2023/10/29 04:14:20;;;;;;;5.15;1.80;;;12.20;99.90;;;;;;5075040;28;20052;-74
2023/10/29 04:16:46;;;;;;;4.78;1.60;;;12.30;99.90;;;;;;5074321;28;20056;-74
2023/10/29 04:19:11;;;;;;;3.70;1.70;;;12.30;99.90;;;;;;5075139;28;20049;-74
2023/10/29 04:21:37;;;;;;;2.67;1.30;;;12.30;99.90;;;;;;5075345;28;20079;-75
2023/10/29 04:24:03;;;;;;;6.03;1.52;;;12.40;99.90;;;;;;5074409;28;20044;-73
2023/10/29 04:26:29;;;;;;;4.47;1.40;;;12.50;99.90;;;;;;5074787;28;20425;-73
2023/10/29 04:28:55;;;;;;;4.35;1.50;;;12.50;99.90;;;;;;5075046;28;20063;-74
2023/10/29 04:31:21;;;;;;;3.78;1.33;;;12.60;99.90;;;;;;5058436;28;20055;-73
2023/10/29 04:33:48;;;;;;;4.78;1.52;;;12.60;99.90;;;;;;5057860;28;20040;-74
2023/10/29 04:36:24;;;;;;;3.28;1.75;;;12.60;99.90;;;;;;5074864;28;20067;-74
2023/10/29 04:38:51;;;;;;;3.45;1.45;;;12.70;99.90;;;;;;5074491;28;20076;-74
2023/10/29 04:41:17;;;;;;;3.15;1.40;;;12.70;99.90;;;;;;5074932;28;20067;-76
2023/10/29 04:43:43;;;;;;;3.53;1.20;;;12.70;99.90;;;;;;5074626;28;20059;-75
2023/10/29 04:46:13;;;;;;;3.88;1.35;;;12.70;99.90;;;;;;5058042;28;20044;-74
2023/10/29 04:48:40;;;;;;;3.85;1.00;;;12.70;99.90;;;;;;5074947;28;20074;-74
2023/10/29 04:51:06;;;;;;;1.13;0.77;;;12.60;99.90;;;;;;5040671;28;20140;-75
2023/10/29 04:53:36;;;;;;;3.25;0.90;;;12.60;99.90;;;;;;5074631;28;20041;-75
2023/10/29 04:56:03;;;;;;;3.63;1.00;;;12.60;99.90;;;;;;5073517;28;20044;-75
2023/10/29 04:58:29;;;;;;;2.30;0.80;;;12.50;99.90;;;;;;5073783;28;20560;-75
2023/10/29 05:00:56;;;;;;;2.85;0.80;;;12.50;99.90;;;;;;5073665;28;20048;-73
2023/10/29 05:03:22;;;;;;;2.83;1.10;;;12.40;99.90;;;;;;5074199;28;20052;-75
2023/10/29 05:05:48;;;;;;;1.85;0.80;;;12.40;99.90;;;;;;5073559;28;20045;-76
2023/10/29 05:08:14;;;;;;;3.45;1.13;;;12.30;99.90;;;;;;5073907;28;20047;-74
2023/10/29 05:10:43;;;;;;;3.25;1.35;;;12.30;99.90;;;;;;5024232;28;20062;-74
2023/10/29 05:13:09;;;;;;;1.45;0.95;;;12.20;99.90;;;;;;5073690;28;20045;-75
2023/10/29 05:15:34;;;;;;;1.65;0.82;;;12.20;99.90;;;;;;5057269;28;20109;-75
2023/10/29 05:18:00;;;;;;;2.22;0.85;;;12.20;99.90;;;;;;5056173;28;20053;-75
2023/10/29 05:20:26;;;;;;;2.00;1.00;;;12.20;99.90;;;;;;5073991;28;20133;-74
2023/10/29 05:22:52;;;;;;;2.05;0.70;;;12.10;99.90;;;;;;5056977;28;20486;-75
2023/10/29 05:25:18;;;;;;;2.90;0.88;;;12.10;99.90;;;;;;5073808;28;20048;-75
2023/10/29 05:27:55;;;;;;;1.60;1.10;;;12.10;99.90;;;;;;5057212;28;20052;-75
2023/10/29 05:30:21;;;;;;;1.50;1.00;;;12.00;99.90;;;;;;5073462;28;20048;-74
2023/10/29 05:32:48;;;;;;;1.05;0.80;;;12.00;99.90;;;;;;5073735;28;20040;-76
2023/10/29 05:35:14;;;;;;;2.25;0.80;;;11.90;99.90;;;;;;5073593;28;20056;-75
2023/10/29 05:37:39;;;;;;;5.18;0.98;;;11.90;99.90;;;;;;5073418;28;20051;-76
2023/10/29 05:40:07;;;;;;;1.95;0.73;;;11.90;99.90;;;;;;5055640;28;20041;-75
2023/10/29 05:42:34;;;;;;;2.80;1.23;;;11.90;99.90;;;;;;5073373;28;20051;-76
2023/10/29 05:45:00;;;;;;;5.15;1.48;;;11.90;99.90;;;;;;5073051;28;20516;-75
2023/10/29 05:47:26;;;;;;;3.35;1.20;;;11.80;99.90;;;;;;5073411;28;20496;-76
2023/10/29 05:49:54;;;;;;;5.00;1.27;;;11.80;99.90;;;;;;5073165;28;20084;-77
2023/10/29 05:52:20;;;;;;;3.17;1.10;;;11.80;99.90;;;;;;5073206;28;20052;-76
2023/10/29 05:54:45;;;;;;;2.72;0.95;;;11.80;99.90;;;;;;5056677;28;20047;-76
2023/10/29 05:57:11;;;;;;;4.53;1.30;;;11.80;99.90;;;;;;5056290;28;20248;-76
2023/10/29 05:59:37;;;;;;;3.22;1.10;;;11.80;99.90;;;;;;5073260;28;20068;-75
2023/10/29 06:02:03;;;;;;;6.75;1.13;;;11.80;99.90;;;;;;5056124;28;20149;-76
2023/10/29 06:04:28;;;;;;;1.83;0.88;;;11.80;99.90;;;;;;5056797;28;20413;-75
2023/10/29 06:06:55;;;;;;;2.83;1.13;;;11.80;99.90;;;;;;5072884;28;20052;-76
2023/10/29 06:09:20;;;;;;;2.45;0.98;;;11.90;99.90;;;;;;5073042;28;20054;-75
2023/10/29 06:11:46;;;;;;;3.22;1.10;;;11.80;99.90;;;;;;5072666;28;20049;-76
2023/10/29 06:14:12;;;;;;;3.08;1.00;;;11.80;99.90;;;;;;5072639;28;20040;-76
2023/10/29 06:16:37;;;;;;;5.68;1.40;;;11.90;99.90;;;;;;5072895;28;20106;-75
2023/10/29 06:19:03;;;;;;;4.07;1.30;;;11.90;99.90;;;;;;5072366;28;20049;-75
2023/10/29 06:21:32;;;;;;;5.80;1.23;;;11.80;99.90;;;;;;5071904;28;20080;-75
2023/10/29 06:23:58;;;;;;;5.72;1.50;;;12.20;99.90;;;;;;5072186;28;20127;-75
2023/10/29 06:26:24;;;;;;;5.03;1.70;;;12.00;99.90;;;;;;5039662;28;20087;-75
2023/10/29 06:28:49;;;;;;;7.55;1.70;;;12.00;99.90;;;;;;5072656;28;20056;-74
2023/10/29 06:31:15;;;;;;;3.50;1.23;;;12.00;99.90;;;;;;5055261;28;20161;-75
2023/10/29 06:33:41;;;;;;;6.53;1.48;;;12.00;99.90;;;;;;5073207;28;20087;-75
2023/10/29 06:36:08;;;;;;;3.83;1.27;;;12.00;99.90;;;;;;5071989;28;20060;-74
2023/10/29 06:38:34;;;;;;;5.28;1.60;;;12.00;99.90;;;;;;5056071;28;20044;-74
2023/10/29 06:41:00;;;;;;;4.55;1.52;;;12.00;99.90;;;;;;5071735;28;20051;-75
2023/10/29 06:43:26;;;;;;;2.72;1.20;;;12.00;99.90;;;;;;5055485;28;20048;-74
2023/10/29 06:45:52;;;;;;;1.63;1.02;;;12.10;99.90;;;;;;5055744;28;20045;-74
2023/10/29 06:48:18;;;;;;;1.83;0.90;;;12.10;99.90;;;;;;5071856;28;20621;-74
2023/10/29 06:50:44;;;;;;;2.38;1.00;;;12.10;99.90;;;;;;5072122;28;20500;-73
2023/10/29 06:53:09;;;;;;;2.85;1.30;;;12.10;99.90;;;;;;5071540;28;20076;-76
2023/10/29 06:55:37;;;;;;;7.57;1.38;;;12.00;99.90;;;;;;5071993;28;20390;-76
2023/10/29 06:58:03;;;;;;;5.05;1.27;;;12.10;99.90;;;;;;5071634;28;20045;-76
2023/10/29 07:00:29;;;;;;;3.88;1.23;;;12.10;99.90;;;;;;5055223;28;20399;-75
2023/10/29 07:02:55;;;;;;;4.18;1.38;;;12.10;99.90;;;;;;5071628;28;20044;-75
2023/10/29 07:05:21;;;;;;;2.10;1.20;;;12.10;99.90;;;;;;5070169;28;20080;-75
2023/10/29 07:07:47;;;;;;;2.10;1.20;;;12.20;99.90;;;;;;5071895;28;20056;-75
2023/10/29 07:10:13;;;;;;;3.50;1.27;;;12.30;99.90;;;;;;5071213;28;20051;-76
2023/10/29 07:12:39;;;;;;;4.63;1.10;;;12.50;99.90;;;;;;5071401;28;20109;-74
2023/10/29 07:15:05;;;;;;;4.63;1.25;;;12.70;99.90;;;;;;5070818;28;20082;-75
2023/10/29 07:17:31;;;;;;;3.00;1.05;;;12.80;99.90;;;;;;5070778;28;20082;-75
2023/10/29 07:19:57;;;;;;;1.65;0.82;;;12.90;99.90;;;;;;5072099;28;20398;-74
2023/10/29 07:22:23;;;;;;;5.53;1.50;;;12.80;99.90;;;;;;5071179;28;20494;-76
2023/10/29 07:24:49;;;;;;;5.03;1.30;;;12.80;99.90;;;;;;5071950;28;20048;-75
2023/10/29 07:27:15;;;;;;;2.88;1.10;;;12.70;99.90;;;;;;5054472;28;20115;-76
2023/10/29 07:29:40;;;;;;;4.00;1.83;;;12.70;99.90;;;;;;5071480;28;20494;-75
2023/10/29 07:32:06;;;;;;;3.10;1.20;;;12.60;99.90;;;;;;5055012;28;20055;-76
2023/10/29 07:34:32;;;;;;;3.10;1.10;;;12.60;99.90;;;;;;5054790;28;20048;-75
2023/10/29 07:36:58;;;;;;;5.68;1.20;;;12.60;99.90;;;;;;5071407;28;20044;-78
2023/10/29 07:39:23;;;;;;;2.50;1.23;;;12.70;99.90;;;;;;5071361;28;20052;-75
2023/10/29 07:41:49;;;;;;;2.42;1.02;;;12.60;99.90;;;;;;5071704;28;20541;-75
2023/10/29 07:44:15;;;;;;;3.50;1.00;;;12.60;99.90;;;;;;5054742;28;20072;-75
2023/10/29 07:46:40;;;;;;;3.00;1.08;;;12.60;99.90;;;;;;5038045;28;20045;-75
2023/10/29 07:49:06;;;;;;;5.80;1.52;;;12.60;99.90;;;;;;5071978;28;20047;-76
2023/10/29 07:51:33;;;;;;;1.90;1.00;;;12.60;99.90;;;;;;5071839;28;20052;-75
2023/10/29 07:53:59;;;;;;;5.63;1.08;;;12.60;99.90;;;;;;5071918;28;20045;-76
2023/10/29 07:56:24;;;;;;;4.78;1.30;;;12.70;99.90;;;;;;5071876;28;20139;-76
2023/10/29 07:58:51;;;;;;;3.97;1.08;;;12.70;99.90;;;;;;5054800;28;20379;-76
2023/10/29 08:01:17;;;;;;;5.40;1.40;;;12.70;99.90;;;;;;5054506;28;20059;-74
2023/10/29 08:03:44;;;;;;;6.78;1.55;;;12.70;99.90;;;;;;5071211;28;20044;-76
2023/10/29 08:06:11;;;;;;;3.92;1.30;;;12.70;99.90;;;;;;5071073;28;20087;-76
2023/10/29 08:08:38;;;;;;;5.82;1.58;;;12.80;99.90;;;;;;5071009;28;20049;-76
2023/10/29 08:11:04;;;;;;;4.00;1.38;;;12.80;99.90;;;;;;5071234;28;20058;-75
2023/10/29 08:13:30;;;;;;;6.03;1.65;;;12.80;99.90;;;;;;5071136;28;20075;-74
2023/10/29 08:15:57;;;;;;;4.97;1.42;;;12.80;99.90;;;;;;5054435;28;20402;-76
2023/10/29 08:18:23;;;;;;;6.82;1.50;;;12.90;99.90;;;;;;5054289;28;20048;-76
2023/10/29 08:20:49;;;;;;;3.97;1.45;;;13.20;99.90;;;;;;5054883;28;20050;-75
2023/10/29 08:23:15;;;;;;;4.90;1.65;;;13.80;99.90;;;;;;5054702;28;20036;-75
2023/10/29 08:25:41;;;;;;;2.95;1.10;;;14.30;99.90;;;;;;5071008;28;20049;-74
2023/10/29 08:28:10;;;;;;;4.03;1.65;;;14.80;99.90;;;;;;5071352;28;20052;-74
2023/10/29 08:30:36;;;;;;;6.45;1.52;;;15.30;99.90;;;;;;5071085;28;20398;-73
2023/10/29 08:33:02;;;;;;;6.75;1.38;;;15.50;99.90;;;;;;5071996;28;20048;-72
2023/10/29 08:35:28;;;;;;;5.68;1.40;;;15.70;99.90;;;;;;5054809;28;20044;-74
2023/10/29 08:37:54;;;;;;;4.25;1.17;;;15.50;99.90;;;;;;5054383;28;20059;-74
2023/10/29 08:40:20;;;;;;;6.65;1.17;;;15.20;99.90;;;;;;5070590;28;20106;-74
2023/10/29 08:42:46;;;;;;;4.55;1.17;;;15.00;99.90;;;;;;5071094;28;20084;-74
2023/10/29 08:45:15;;;;;;;6.50;1.55;;;14.80;99.90;;;;;;5024703;28;20052;-73
2023/10/29 08:47:44;;;;;;;5.47;1.48;;;14.60;99.90;;;;;;5059366;28;20049;-75
2023/10/29 08:50:10;;;;;;;7.38;1.40;;;14.40;99.90;;;;;;5074496;28;20142;-73
2023/10/29 08:52:37;;;;;;;7.50;1.23;;;14.30;99.90;;;;;;5025023;28;20191;-73
2023/10/29 08:55:03;;;;;;;4.97;1.42;;;14.30;99.90;;;;;;5075432;28;20057;-73
2023/10/29 08:57:29;;;;;;;6.35;1.55;;;14.20;99.90;;;;;;5074491;28;20128;-73
2023/10/29 08:59:55;;;;;;;4.00;1.38;;;14.20;99.90;;;;;;5074871;28;20045;-74
2023/10/29 09:02:21;;;;;;;7.35;1.85;;;14.10;99.90;;;;;;5074487;28;20047;-73
2023/10/29 09:04:47;;;;;;;6.30;1.30;;;14.10;99.90;;;;;;5074841;28;20052;-73
2023/10/29 09:07:13;;;;;;;3.85;1.27;;;14.00;99.90;;;;;;5074566;28;20044;-73
2023/10/29 09:09:40;;;;;;;4.78;1.27;;;13.90;99.90;;;;;;5057431;28;20043;-73
2023/10/29 09:12:06;;;;;;;5.00;1.27;;;14.00;99.90;;;;;;5074330;28;20048;-73
2023/10/29 09:14:32;;;;;;;5.10;1.27;;;13.90;99.90;;;;;;5074485;28;20155;-75
2023/10/29 09:16:58;;;;;;;5.75;1.30;;;13.90;99.90;;;;;;5074215;28;20056;-74
2023/10/29 09:19:24;;;;;;;4.70;1.10;;;13.90;99.90;;;;;;5057683;28;20084;-74
2023/10/29 09:21:51;;;;;;;5.25;1.33;;;13.90;99.90;;;;;;5074524;28;20056;-75
2023/10/29 09:24:16;;;;;;;5.47;1.00;;;13.90;99.90;;;;;;5074494;28;20057;-73
2023/10/29 09:26:42;;;;;;;6.05;1.30;;;13.80;99.90;;;;;;5074429;28;20498;-74
2023/10/29 09:29:08;;;;;;;3.75;1.50;;;13.80;99.90;;;;;;5058368;28;20056;-74
2023/10/29 09:31:34;;;;;;;7.88;2.30;;;13.80;99.90;;;;;;5041449;28;20052;-74
2023/10/29 09:34:01;;;;;;;5.28;1.73;;;13.80;99.90;;;;;;5041422;28;20406;-74
2023/10/29 09:36:27;;;;;;;4.85;2.03;;;13.90;99.90;;;;;;5073557;28;20520;-73
2023/10/29 09:38:53;;;;;;;7.38;1.67;;;14.00;99.90;;;;;;5057177;28;20055;-74
2023/10/29 09:41:18;;;;;;;4.38;1.45;;;14.10;99.90;;;;;;5040451;28;20040;-71
2023/10/29 09:43:46;;;;;;;3.97;1.20;;;14.10;99.90;;;;;;5074307;28;20052;-77
2023/10/29 09:46:15;;;;;;;6.55;1.73;;;14.10;99.90;;;;;;5074859;28;20406;-74
2023/10/29 09:48:43;;;;;;;4.00;1.50;;;14.10;99.90;;;;;;5090629;28;20041;-74
2023/10/29 09:51:09;;;;;;;8.85;1.83;;;14.20;99.90;;;;;;5057581;28;20105;-73
2023/10/29 09:53:36;;;;;;;3.80;1.10;;;14.10;99.90;;;;;;5074992;28;20082;-73
2023/10/29 09:56:05;;;;;;;4.82;1.65;;;14.10;99.90;;;;;;5090040;28;20178;-72
2023/10/29 09:58:31;;;;;;;4.28;1.23;;;14.20;99.90;;;;;;5075238;28;20040;-72
2023/10/29 10:00:58;;;;;;;3.33;1.10;;;14.20;99.90;;;;;;5073715;28;20047;-73
2023/10/29 10:03:27;;;;;;;6.70;1.33;;;14.30;99.90;;;;;;5073045;28;20473;-73
2023/10/29 10:05:53;;;;;;;6.57;1.95;;;14.30;99.90;;;;;;5056048;28;20044;-72
2023/10/29 10:08:26;;;;;;;5.60;1.50;;;14.40;99.90;;;;;;5070421;28;20133;-73
2023/10/29 10:10:52;;;;;;;7.90;1.73;;;14.50;99.90;;;;;;5070753;28;20079;-75
2023/10/29 10:13:18;;;;;;;6.55;1.70;;;14.50;99.90;;;;;;5055019;28;20052;-74
2023/10/29 10:15:44;;;;;;;8.50;1.77;;;14.40;99.90;;;;;;5071316;28;20133;-75
2023/10/29 10:18:11;;;;;;;6.20;1.52;;;14.40;99.90;;;;;;5054736;28;20060;-74
2023/10/29 10:20:38;;;;;;;3.88;1.48;;;14.40;99.90;;;;;;5071941;28;20098;-75
2023/10/29 10:23:07;;;;;;;5.78;1.70;;;14.40;99.90;;;;;;5072983;28;20056;-74
2023/10/29 10:25:34;;;;;;;4.72;1.30;;;14.40;99.90;;;;;;5088924;28;20049;-74
2023/10/29 10:28:02;;;;;;;2.33;1.23;;;14.50;99.90;;;;;;5072942;28;20486;-73
2023/10/29 10:30:31;;;;;;;3.28;1.33;;;14.50;99.90;;;;;;5072688;28;20113;-74
2023/10/29 10:33:12;;;;;;;2.88;1.27;;;14.40;99.90;;;;;;5072895;28;20059;-74
2023/10/29 10:35:56;;;;;;;7.03;1.60;;;14.50;99.90;;;;;;5073761;28;20045;-74
2023/10/29 10:38:22;;;;;;;5.63;1.73;;;14.50;99.90;;;;;;5087768;28;20040;-73
2023/10/29 10:40:58;;;;;;;4.85;1.73;;;14.60;99.90;;;;;;5054018;28;20098;-73
2023/10/29 10:43:26;;;;;;;4.43;1.40;;;14.60;99.90;;;;;;5088575;28;20113;-74
2023/10/29 10:45:54;;;;;;;5.18;1.67;;;14.50;99.90;;;;;;5088386;28;20686;-73
2023/10/29 10:48:20;;;;;;;7.38;1.40;;;14.60;99.90;;;;;;5072080;28;20059;-73
2023/10/29 10:50:46;;;;;;;4.50;1.63;;;14.60;99.90;;;;;;5071999;28;20140;-74
2023/10/29 10:53:13;;;;;;;6.18;1.65;;;14.60;99.90;;;;;;5071332;28;20519;-73
2023/10/29 10:55:41;;;;;;;6.65;1.60;;;14.60;99.90;;;;;;5070662;28;20514;-72
2023/10/29 10:58:11;;;;;;;6.35;1.50;;;14.60;99.90;;;;;;5071943;28;20096;-74
2023/10/29 11:00:38;;;;;;;7.93;1.70;;;14.60;99.90;;;;;;5070659;28;20227;-73
2023/10/29 11:03:05;;;;;;;7.28;1.63;;;14.60;99.90;;;;;;5072534;28;20044;-74
2023/10/29 11:05:33;;;;;;;4.95;1.38;;;14.60;99.90;;;;;;5069628;28;20051;-74
2023/10/29 11:07:59;;;;;;;4.60;1.38;;;14.70;99.90;;;;;;5070604;28;20124;-73
2023/10/29 11:10:26;;;;;;;6.35;1.42;;;14.70;99.90;;;;;;5071815;28;20137;-73
2023/10/29 11:12:52;;;;;;;6.35;1.90;;;14.70;99.90;;;;;;5070826;28;20048;-72
2023/10/29 11:15:19;;;;;;;6.07;1.48;;;14.80;99.90;;;;;;5071906;28;20060;-72
2023/10/29 11:17:59;;;;;;;7.72;1.60;;;14.80;99.90;;;;;;5068332;28;20072;-72
2023/10/29 11:20:37;;;;;;;5.45;2.10;;;14.80;99.90;;;;;;5071585;28;20411;-72
2023/10/29 11:23:12;;;;;;;5.32;1.60;;;14.80;99.90;;;;;;5071846;28;20056;-72
2023/10/29 11:25:38;;;;;;;9.05;2.00;;;14.80;99.90;;;;;;5071436;28;20474;-75
2023/10/29 11:28:04;;;;;;;4.90;1.63;;;14.80;99.90;;;;;;5039267;28;20063;-73
2023/10/29 11:30:30;;;;;;;5.50;1.98;;;14.80;99.90;;;;;;5072295;28;20049;-72
2023/10/29 11:33:16;;;;;;;6.60;1.90;;;14.80;99.90;;;;;;5088059;28;20109;-72
2023/10/29 11:35:42;;;;;;;6.97;1.95;;;14.70;99.90;;;;;;5071200;28;20044;-73
2023/10/29 11:38:39;;;;;;;7.18;2.20;;;14.70;99.90;;;;;;5071356;28;20051;-72
2023/10/29 11:41:41;;;;;;;8.98;1.80;;;14.70;99.90;;;;;;5071544;28;20048;-72
2023/10/29 11:44:18;;;;;;;7.50;1.90;;;14.80;99.90;;;;;;5053224;28;20044;-71
2023/10/29 11:46:56;;;;;;;7.75;2.30;;;14.80;99.90;;;;;;5071530;28;20052;-72
2023/10/29 11:49:22;;;;;;;8.90;1.92;;;14.80;99.90;;;;;;5071471;28;20053;-72
2023/10/29 11:51:59;;;;;;;7.53;1.98;;;14.90;99.90;;;;;;5070969;28;20113;-73
2023/10/29 11:54:26;;;;;;;4.95;1.48;;;14.80;99.90;;;;;;5071379;28;20092;-72
2023/10/29 11:56:52;;;;;;;9.32;2.15;;;14.70;99.90;;;;;;5070834;28;20060;-73
2023/10/29 11:59:18;;;;;;;6.80;2.00;;;14.70;99.90;;;;;;5072402;28;20052;-71
2023/10/29 12:01:44;;;;;;;7.50;2.20;;;14.70;99.90;;;;;;5071835;28;20060;-71
2023/10/29 12:04:11;;;;;;;8.50;2.03;;;14.60;99.90;;;;;;5072712;28;20040;-71
2023/10/29 12:06:45;;;;;;;10.13;2.08;;;14.50;99.90;;;;;;5071607;28;20044;-72
2023/10/29 12:09:22;;;;;;;7.07;2.20;;;14.50;99.90;;;;;;5072843;28;20052;-71
2023/10/29 12:11:50;;;;;;;7.30;1.95;;;14.50;99.90;;;;;;5071454;28;20298;-72
2023/10/29 12:14:33;;;;;;;5.40;1.80;;;14.50;99.90;;;;;;5071751;28;20052;-71
2023/10/29 12:16:59;;;;;;;8.73;2.05;;;14.50;99.90;;;;;;5071783;28;20502;-70
2023/10/29 12:19:38;;;;;;;9.85;2.53;;;14.50;99.90;;;;;;5072401;28;20137;-71
2023/10/29 12:22:27;;;;;;;9.68;2.08;;;14.50;99.90;;;;;;5075605;28;20044;-71
2023/10/29 12:25:01;;;;;;;9.75;2.13;;;14.50;99.90;;;;;;5075235;28;20048;-71
2023/10/29 12:27:30;;;;;;;5.70;1.85;;;14.40;99.90;;;;;;5075617;28;20048;-70
2023/10/29 12:29:56;;;;;;;8.98;1.77;;;14.40;99.90;;;;;;5076510;28;20049;-70
2023/10/29 12:32:23;;;;;;;12.40;2.13;;;14.40;99.90;;;;;;5076209;28;20178;-70
2023/10/29 12:34:59;;;;;;;11.05;2.08;;;14.40;99.90;;;;;;5075973;28;20501;-72
2023/10/29 12:37:30;;;;;;;8.25;1.80;;;14.40;99.90;;;;;;5091582;28;20036;-72
2023/10/29 12:40:00;;;;;;;7.60;2.03;;;14.50;99.90;;;;;;5074356;28;20063;-72
2023/10/29 12:42:51;;;;;;;7.80;1.90;;;14.50;99.90;;;;;;5074430;28;20048;-71
2023/10/29 12:45:24;;;;;;;8.85;1.83;;;14.50;99.90;;;;;;5057977;28;20482;-71